createdAt,value
2023-06-11T00:00:01.960Z,72
2023-06-11T00:05:04.028Z,72
2023-06-11T00:10:05.434Z,72
2023-06-11T00:15:07.227Z,72
2023-06-11T00:20:09.300Z,72
2023-06-11T00:25:11.604Z,72
2023-06-11T00:30:13.051Z,73
2023-06-11T00:35:14.769Z,73
2023-06-11T00:40:16.291Z,73
2023-06-11T00:45:18.094Z,74
2023-06-11T00:50:19.436Z,73
2023-06-11T00:55:21.426Z,73
2023-06-11T01:00:22.915Z,74
2023-06-11T01:05:24.676Z,74
2023-06-11T01:10:25.932Z,74
2023-06-11T01:15:27.326Z,74
2023-06-11T01:20:28.885Z,74
2023-06-11T01:25:30.650Z,75
2023-06-11T01:30:32.502Z,75
2023-06-11T01:35:34.688Z,75
2023-06-11T01:40:36.222Z,75
2023-06-11T01:45:37.904Z,76
2023-06-11T01:50:39.855Z,76
2023-06-11T01:55:41.370Z,76
2023-06-11T02:00:43.065Z,76
2023-06-11T02:05:45.036Z,76
2023-06-11T02:10:46.547Z,76
2023-06-11T02:15:48.049Z,76
2023-06-11T02:20:49.276Z,77
2023-06-11T02:25:50.478Z,77
2023-06-11T02:30:52.352Z,77
2023-06-11T02:35:53.835Z,76
2023-06-11T02:40:55.961Z,76
2023-06-11T02:45:57.677Z,76
2023-06-11T02:50:59.747Z,76
2023-06-11T02:56:01.472Z,76
2023-06-11T03:01:03.532Z,77
2023-06-11T03:06:05.507Z,76
2023-06-11T03:11:06.832Z,77
2023-06-11T03:16:08.183Z,77
2023-06-11T03:21:09.483Z,77
2023-06-11T03:26:10.953Z,77
2023-06-11T03:31:12.233Z,77
2023-06-11T03:36:13.487Z,77
2023-06-11T03:41:15.491Z,78
2023-06-11T03:46:17.509Z,78
2023-06-11T03:51:18.964Z,77
2023-06-11T03:56:20.244Z,78
2023-06-11T04:01:21.959Z,77
2023-06-11T04:06:23.959Z,78
2023-06-11T04:11:25.458Z,78
2023-06-11T04:16:27.299Z,78
2023-06-11T04:21:29.406Z,78
2023-06-11T04:26:30.870Z,78
2023-06-11T04:31:32.325Z,79
2023-06-11T04:36:34.237Z,78
2023-06-11T04:41:36.089Z,78
2023-06-11T04:46:37.230Z,77
2023-06-11T04:51:38.492Z,77
2023-06-11T04:56:41.328Z,76
2023-06-11T05:01:42.051Z,76
2023-06-11T05:06:43.490Z,76
2023-06-11T05:11:45.755Z,75
2023-06-11T05:16:47.061Z,74
2023-06-11T05:21:48.300Z,73
2023-06-11T05:26:49.727Z,72
2023-06-11T05:31:51.748Z,70
2023-06-11T05:36:53.150Z,69
2023-06-11T05:41:54.549Z,67
2023-06-11T05:46:56.359Z,65
2023-06-11T05:51:58.116Z,63
2023-06-11T05:56:59.379Z,60
2023-06-11T06:02:00.561Z,60
2023-06-11T06:07:02.225Z,58
2023-06-11T06:12:03.714Z,55
2023-06-11T06:17:05.706Z,54
2023-06-11T06:22:07.789Z,52
2023-06-11T06:27:09.865Z,50
2023-06-11T06:32:11.395Z,49
2023-06-11T06:37:13.309Z,49
2023-06-11T06:42:14.551Z,46
2023-06-11T06:47:16.486Z,46
2023-06-11T06:52:19.042Z,45
2023-06-11T06:57:18.944Z,45
2023-06-11T07:02:20.270Z,45
2023-06-11T07:07:22.199Z,44
2023-06-11T07:12:24.220Z,43
2023-06-11T07:32:30.332Z,41
2023-06-11T08:02:42.068Z,42
2023-06-11T08:07:43.552Z,41
2023-06-11T08:17:46.986Z,39
2023-06-11T08:27:49.973Z,39
2023-06-11T08:42:55.114Z,39
2023-06-11T08:47:57.164Z,38
2023-06-11T09:08:04.302Z,37
2023-06-11T09:23:08.275Z,36
2023-06-11T09:38:12.882Z,37
2023-06-11T09:48:16.134Z,37
2023-06-11T09:53:17.692Z,39
2023-06-11T10:03:20.491Z,39
2023-06-11T10:13:24.275Z,40
2023-06-11T10:18:25.724Z,38
2023-06-11T10:23:27.797Z,38
2023-06-11T10:28:29.091Z,37
2023-06-11T10:33:30.656Z,38
2023-06-11T10:38:31.817Z,37
2023-06-11T10:43:33.460Z,38
2023-06-11T10:48:34.942Z,39
2023-06-11T10:53:36.228Z,39
2023-06-11T10:58:38.141Z,39
2023-06-11T11:03:39.941Z,38
2023-06-11T11:08:41.611Z,39
2023-06-11T11:13:43.233Z,38
2023-06-11T11:18:44.414Z,37
2023-06-11T11:23:45.990Z,38
2023-06-11T11:28:47.877Z,39
2023-06-11T11:33:49.501Z,37
2023-06-11T11:38:51.079Z,38
2023-06-11T11:43:52.656Z,38
2023-06-11T11:48:53.901Z,38
2023-06-11T11:53:55.904Z,38
2023-06-11T11:58:58.031Z,37
2023-06-11T12:03:59.488Z,36
2023-06-11T12:09:00.500Z,37
2023-06-11T12:14:02.401Z,37
2023-06-11T12:19:14.745Z,37
2023-06-11T12:24:06.437Z,36
2023-06-11T12:29:08.307Z,36
2023-06-11T12:34:09.601Z,34
2023-06-11T12:39:11.041Z,33
2023-06-11T12:44:12.690Z,34
2023-06-11T12:49:14.763Z,34
2023-06-11T12:54:16.523Z,33
2023-06-11T12:59:17.957Z,34
2023-06-11T13:04:19.569Z,34
2023-06-11T13:09:21.482Z,33
2023-06-11T13:14:23.406Z,32
2023-06-11T13:19:25.538Z,32
2023-06-11T13:24:27.447Z,31
2023-06-11T13:29:28.744Z,30
2023-06-11T13:34:30.002Z,31
2023-06-11T13:39:31.913Z,30
2023-06-11T13:44:33.465Z,30
2023-06-11T13:49:34.754Z,30
2023-06-11T13:54:36.705Z,30
2023-06-11T13:59:44.768Z,30
2023-06-11T14:04:46.752Z,32
2023-06-11T14:09:48.821Z,32
2023-06-11T14:14:50.415Z,32
2023-06-11T14:19:52.409Z,32
2023-06-11T14:24:53.947Z,32
2023-06-11T14:29:55.599Z,32
2023-06-11T14:34:59.339Z,31
2023-06-11T14:39:59.394Z,31
2023-06-11T14:45:01.052Z,31
2023-06-11T14:50:02.179Z,32
2023-06-11T14:55:03.791Z,32
2023-06-11T15:00:05.644Z,31
2023-06-11T15:05:06.901Z,31
2023-06-11T15:10:09.158Z,30
2023-06-11T15:15:12.501Z,31
2023-06-11T15:20:11.812Z,30
2023-06-11T15:25:12.950Z,31
2023-06-11T15:30:14.663Z,32
2023-06-11T15:35:16.412Z,32
2023-06-11T15:40:17.791Z,33
2023-06-11T15:45:19.304Z,33
2023-06-11T15:50:21.305Z,33
2023-06-11T15:55:23.068Z,32
2023-06-11T16:00:24.648Z,32
2023-06-11T16:05:26.306Z,33
2023-06-11T16:10:27.787Z,33
2023-06-11T16:15:28.950Z,33
2023-06-11T16:20:30.441Z,31
2023-06-11T16:25:31.842Z,32
2023-06-11T16:30:33.834Z,32
2023-06-11T16:35:35.476Z,32
2023-06-11T16:40:36.756Z,32
2023-06-11T16:45:38.514Z,32
2023-06-11T16:50:39.938Z,31
2023-06-11T16:55:41.372Z,30
2023-06-11T17:00:42.748Z,31
2023-06-11T17:05:44.346Z,30
2023-06-11T17:10:45.599Z,30
2023-06-11T17:15:47.178Z,30
2023-06-11T17:20:48.917Z,30
2023-06-11T17:25:50.227Z,31
2023-06-11T17:30:51.403Z,32
2023-06-11T17:35:53.282Z,32
2023-06-11T17:40:54.534Z,32
2023-06-11T17:45:56.284Z,33
2023-06-11T17:50:57.496Z,33
2023-06-11T17:55:59.294Z,33
2023-06-11T18:01:00.993Z,33
2023-06-11T18:06:02.156Z,32
2023-06-11T18:11:03.924Z,33
2023-06-11T18:16:05.989Z,33
2023-06-11T18:21:07.951Z,33
2023-06-11T18:26:09.290Z,34
2023-06-11T18:31:11.337Z,34
2023-06-11T18:36:12.999Z,34
2023-06-11T18:41:14.340Z,34
2023-06-11T18:46:16.235Z,34
2023-06-11T18:51:17.427Z,35
2023-06-11T18:56:19.366Z,36
2023-06-11T19:01:21.225Z,36
2023-06-11T19:06:22.554Z,36
2023-06-11T19:11:23.735Z,36
2023-06-11T19:16:25.427Z,37
2023-06-11T19:21:27.475Z,37
2023-06-11T19:26:29.395Z,38
2023-06-11T19:31:31.475Z,38
2023-06-11T19:36:33.248Z,40
2023-06-11T19:41:35.105Z,39
2023-06-11T19:46:36.452Z,40
2023-06-11T19:51:37.662Z,40
2023-06-11T19:56:39.839Z,40
2023-06-11T20:01:41.804Z,41
2023-06-11T20:06:44.174Z,41
2023-06-11T20:11:45.267Z,42
2023-06-11T20:16:46.946Z,42
2023-06-11T20:21:48.583Z,43
2023-06-11T20:26:50.364Z,43
2023-06-11T20:31:52.171Z,43
2023-06-11T20:36:53.299Z,43
2023-06-11T20:41:55.404Z,43
2023-06-11T20:46:57.138Z,44
2023-06-11T20:51:58.465Z,44
2023-06-11T20:57:00.601Z,44
2023-06-11T21:02:02.709Z,45
2023-06-11T21:07:04.112Z,45
2023-06-11T21:12:06.111Z,45
2023-06-11T21:17:07.906Z,46
2023-06-11T21:22:09.889Z,47
2023-06-11T21:27:11.614Z,47
2023-06-11T21:32:13.751Z,47
2023-06-11T21:37:15.120Z,48
2023-06-11T21:42:17.272Z,48
2023-06-11T21:47:19.405Z,48
2023-06-11T21:52:20.637Z,49
2023-06-11T21:57:22.136Z,49
2023-06-11T22:32:34.513Z,52
2023-06-11T22:47:39.370Z,54
2023-06-11T23:22:50.565Z,56
